Time,TemperatureF,DewpointF,PressureIn,WindDirection,WindDirectionDegrees,WindSpeedMPH,WindSpeedGustMPH,Humidity,HourlyPrecipIn,Conditions,Clouds,dailyrainin,SolarRadiationWatts/m^2,SoftwareType,DateUTC
2013-03-21 00:01:00,36.8,34.4,30.10,SW,217,0.0,2.0,91,0.00,,,0.67,0,Wunderground v.1.15,2013-03-21 07:01:00,
2013-03-21 00:07:00,36.8,34.4,30.10,SW,217,0.0,2.0,91,0.00,,,0.00,0,Wunderground v.1.15,2013-03-21 07:07:00,
2013-03-21 00:13:00,36.7,34.3,30.10,SW,217,2.0,2.0,91,0.00,,,0.00,0,Wunderground v.1.15,2013-03-21 07:13:00,
2013-03-21 00:19:00,36.6,34.2,30.10,SW,217,3.0,3.0,91,0.00,,,0.00,0,Wunderground v.1.15,2013-03-21 07:19:00,
2013-03-21 00:25:00,36.7,34.0,30.10,SW,216,3.0,4.0,90,0.00,,,0.00,0,Wunderground v.1.15,2013-03-21 07:25:00,
2013-03-21 00:30:00,36.8,34.1,30.10,SSE,168,4.0,4.0,90,0.00,,,0.00,0,Wunderground v.1.15,2013-03-21 07:30:00,
2013-03-21 00:35:00,37.0,34.3,30.10,SSE,168,5.0,5.0,90,0.00,,,0.00,0,Wunderground v.1.15,2013-03-21 07:35:00,
2013-03-21 00:41:00,37.0,34.3,30.11,South,178,6.0,6.0,90,0.00,,,0.00,0,Wunderground v.1.15,2013-03-21 07:41:00,
2013-03-21 00:47:00,36.9,34.2,30.10,SSE,161,5.0,6.0,90,0.00,,,0.00,0,Wunderground v.1.15,2013-03-21 07:47:00,
2013-03-21 00:53:00,36.7,34.0,30.11,SSE,159,5.0,5.0,90,0.00,,,0.00,0,Wunderground v.1.15,2013-03-21 07:53:00,
2013-03-21 00:59:00,36.5,33.8,30.11,South,181,6.0,7.0,90,0.00,,,0.00,0,Wunderground v.1.15,2013-03-21 07:59:00,
2013-03-21 01:04:00,36.4,33.7,30.11,South,178,9.0,9.0,90,0.00,,,0.00,0,Wunderground v.1.15,2013-03-21 08:04:00,
2013-03-21 01:10:00,36.3,33.6,30.11,South,184,5.0,6.0,90,0.00,,,0.00,0,Wunderground v.1.15,2013-03-21 08:10:00,
2013-03-21 01:16:00,36.2,33.5,30.11,South,186,6.0,8.0,90,0.00,,,0.00,0,Wunderground v.1.15,2013-03-21 08:16:00,
2013-03-21 01:21:00,36.3,33.6,30.11,South,187,5.0,6.0,90,0.00,,,0.00,0,Wunderground v.1.15,2013-03-21 08:21:00,
2013-03-21 01:27:00,36.3,33.6,30.12,South,186,5.0,8.0,90,0.00,,,0.00,0,Wunderground v.1.15,2013-03-21 08:27:00,
2013-03-21 01:33:00,36.4,33.7,30.12,South,188,6.0,6.0,90,0.00,,,0.00,0,Wunderground v.1.15,2013-03-21 08:33:00,
2013-03-21 01:38:00,36.5,33.8,30.12,South,173,8.0,8.0,90,0.00,,,0.00,0,Wunderground v.1.15,2013-03-21 08:38:00,
2013-03-21 01:44:00,36.6,33.9,30.12,South,190,8.0,11.0,90,0.00,,,0.00,0,Wunderground v.1.15,2013-03-21 08:44:00,
2013-03-21 01:50:00,36.7,34.3,30.12,SSW,195,6.0,8.0,91,0.00,,,0.00,0,Wunderground v.1.15,2013-03-21 08:50:00,
2013-03-21 01:55:00,36.6,34.2,30.12,SSW,201,6.0,12.0,91,0.00,,,0.00,0,Wunderground v.1.15,2013-03-21 08:55:00,
2013-03-21 02:00:00,36.6,34.2,30.12,SSW,211,7.0,8.0,91,0.00,,,0.00,0,Wunderground v.1.15,2013-03-21 09:00:00,
2013-03-21 02:05:00,36.5,34.1,30.13,SSW,212,8.0,11.0,91,0.00,,,0.00,0,Wunderground v.1.15,2013-03-21 09:05:00,
2013-03-21 02:10:00,36.4,34.0,30.13,SSW,194,7.0,8.0,91,0.00,,,0.00,0,Wunderground v.1.15,2013-03-21 09:10:00,
2013-03-21 02:15:00,36.2,33.8,30.13,South,191,4.0,9.0,91,0.00,,,0.00,0,Wunderground v.1.15,2013-03-21 09:15:00,
2013-03-21 02:20:00,36.1,33.7,30.13,SSW,192,4.0,7.0,91,0.00,,,0.00,0,Wunderground v.1.15,2013-03-21 09:20:00,
2013-03-21 02:25:00,36.0,33.6,30.13,SSW,202,4.0,7.0,91,0.00,,,0.00,0,Wunderground v.1.15,2013-03-21 09:25:00,
2013-03-21 02:30:00,35.9,33.5,30.14,SSW,201,2.0,4.0,91,0.00,,,0.00,0,Wunderground v.1.15,2013-03-21 09:30:00,
2013-03-21 02:35:00,35.8,33.4,30.14,SSW,201,2.0,5.0,91,0.00,,,0.00,0,Wunderground v.1.15,2013-03-21 09:35:00,
2013-03-21 02:40:00,35.7,33.3,30.13,SSW,201,2.0,3.0,91,0.00,,,0.00,0,Wunderground v.1.15,2013-03-21 09:40:00,
2013-03-21 02:45:00,35.6,33.0,30.13,SSW,201,2.0,3.0,90,0.00,,,0.00,0,Wunderground v.1.15,2013-03-21 09:45:00,
2013-03-21 02:50:00,35.5,32.9,30.13,SSW,201,0.0,2.0,90,0.00,,,0.00,0,Wunderground v.1.15,2013-03-21 09:50:00,
2013-03-21 02:55:00,35.6,33.0,30.14,SSW,201,3.0,4.0,90,0.00,,,0.00,0,Wunderground v.1.15,2013-03-21 09:55:00,
2013-03-21 03:00:00,35.6,33.0,30.14,SSW,198,4.0,4.0,90,0.00,,,0.00,0,Wunderground v.1.15,2013-03-21 10:00:00,
2013-03-21 03:05:00,35.7,33.1,30.14,SSW,198,5.0,6.0,90,0.00,,,0.00,0,Wunderground v.1.15,2013-03-21 10:05:00,
2013-03-21 03:10:00,35.8,33.2,30.14,South,191,4.0,6.0,90,0.00,,,0.00,0,Wunderground v.1.15,2013-03-21 10:10:00,
2013-03-21 03:15:00,35.8,33.2,30.14,SSW,192,3.0,6.0,90,0.00,,,0.00,0,Wunderground v.1.15,2013-03-21 10:15:00,
2013-03-21 03:20:00,35.8,33.2,30.14,SSW,194,4.0,5.0,90,0.00,,,0.00,0,Wunderground v.1.15,2013-03-21 10:20:00,
2013-03-21 03:25:00,35.8,33.2,30.14,South,185,5.0,8.0,90,0.00,,,0.00,0,Wunderground v.1.15,2013-03-21 10:25:00,
2013-03-21 03:30:00,35.9,33.3,30.14,South,189,5.0,5.0,90,0.00,,,0.00,0,Wunderground v.1.15,2013-03-21 10:30:00,
2013-03-21 03:35:00,36.0,33.4,30.14,South,191,8.0,10.0,90,0.00,,,0.00,0,Wunderground v.1.15,2013-03-21 10:35:00,
2013-03-21 03:40:00,36.2,33.3,30.14,SSW,194,7.0,8.0,89,0.00,,,0.00,0,Wunderground v.1.15,2013-03-21 10:40:00,
2013-03-21 03:45:00,36.3,33.6,30.14,SSW,194,6.0,9.0,90,0.00,,,0.00,0,Wunderground v.1.15,2013-03-21 10:45:00,
2013-03-21 03:50:00,36.3,33.6,30.14,SSW,202,8.0,9.0,90,0.00,,,0.00,0,Wunderground v.1.15,2013-03-21 10:50:00,
2013-03-21 03:55:00,36.2,33.5,30.14,SW,215,6.0,9.0,90,0.00,,,0.00,0,Wunderground v.1.15,2013-03-21 10:55:00,
2013-03-21 04:00:00,36.2,33.3,30.14,SSW,210,6.0,7.0,89,0.00,,,0.00,0,Wunderground v.1.15,2013-03-21 11:00:00,
2013-03-21 04:05:00,36.2,33.5,30.14,SSW,210,8.0,11.0,90,0.00,,,0.00,0,Wunderground v.1.15,2013-03-21 11:05:00,
2013-03-21 04:10:00,36.1,33.5,30.14,SSW,209,9.0,9.0,90,0.00,,,0.00,0,Wunderground v.1.15,2013-03-21 11:10:00,
2013-03-21 04:15:00,36.0,33.4,30.14,SSW,202,9.0,12.0,90,0.00,,,0.00,0,Wunderground v.1.15,2013-03-21 11:15:00,
2013-03-21 04:21:00,35.9,33.3,30.14,SSW,205,4.0,7.0,90,0.00,,,0.00,0,Wunderground v.1.15,2013-03-21 11:21:00,
2013-03-21 04:26:00,35.8,33.2,30.14,SSW,209,5.0,7.0,90,0.00,,,0.00,0,Wunderground v.1.15,2013-03-21 11:26:00,
2013-03-21 04:31:00,35.8,33.2,30.14,SSW,199,6.0,7.0,90,0.00,,,0.00,0,Wunderground v.1.15,2013-03-21 11:31:00,
2013-03-21 04:36:00,35.7,33.1,30.15,South,191,5.0,8.0,90,0.00,,,0.00,0,Wunderground v.1.15,2013-03-21 11:36:00,
2013-03-21 04:41:00,35.8,33.2,30.14,South,188,7.0,8.0,90,0.00,,,0.00,0,Wunderground v.1.15,2013-03-21 11:41:00,
2013-03-21 04:46:00,35.7,33.1,30.14,South,182,5.0,8.0,90,0.00,,,0.00,0,Wunderground v.1.15,2013-03-21 11:46:00,
2013-03-21 04:51:00,35.7,33.1,30.15,South,188,2.0,5.0,90,0.00,,,0.00,0,Wunderground v.1.15,2013-03-21 11:51:00,
2013-03-21 04:56:00,35.7,33.1,30.15,SW,215,3.0,6.0,90,0.00,,,0.00,0,Wunderground v.1.15,2013-03-21 11:56:00,
2013-03-21 05:00:00,35.7,33.1,30.15,SW,215,4.0,4.0,90,0.00,,,0.00,0,Wunderground v.1.15,2013-03-21 12:00:00,
2013-03-21 05:05:00,35.7,33.1,30.15,SW,225,3.0,7.0,90,0.00,,,0.00,0,Wunderground v.1.15,2013-03-21 12:05:00,
2013-03-21 05:11:00,35.6,33.0,30.16,SW,215,5.0,8.0,90,0.00,,,0.00,0,Wunderground v.1.15,2013-03-21 12:11:00,
2013-03-21 05:16:00,35.6,33.0,30.16,SW,214,4.0,8.0,90,0.00,,,0.00,0,Wunderground v.1.15,2013-03-21 12:16:00,
2013-03-21 05:21:00,35.5,32.9,30.16,South,188,5.0,8.0,90,0.00,,,0.00,0,Wunderground v.1.15,2013-03-21 12:21:00,
2013-03-21 05:26:00,35.3,32.7,30.16,SSW,196,9.0,10.0,90,0.00,,,0.00,0,Wunderground v.1.15,2013-03-21 12:26:00,
2013-03-21 05:31:00,35.3,32.7,30.16,South,187,5.0,8.0,90,0.00,,,0.00,0,Wunderground v.1.15,2013-03-21 12:31:00,
2013-03-21 05:36:00,35.3,32.7,30.16,SW,219,7.0,9.0,90,0.00,,,0.00,0,Wunderground v.1.15,2013-03-21 12:36:00,
2013-03-21 05:41:00,35.3,32.4,30.16,SSW,198,5.0,7.0,89,0.00,,,0.00,0,Wunderground v.1.15,2013-03-21 12:41:00,
2013-03-21 05:46:00,35.4,32.5,30.16,South,186,6.0,8.0,89,0.00,,,0.00,0,Wunderground v.1.15,2013-03-21 12:46:00,
2013-03-21 05:54:00,35.3,32.7,30.16,SSW,207,5.0,6.0,90,0.00,,,0.00,0,Wunderground v.1.15,2013-03-21 12:54:00,
2013-03-21 05:59:00,35.3,32.7,30.16,SW,217,7.0,7.0,90,0.00,,,0.00,0,Wunderground v.1.15,2013-03-21 12:59:00,
2013-03-21 06:04:00,35.3,32.7,30.16,SSW,210,4.0,6.0,90,0.00,,,0.00,0,Wunderground v.1.15,2013-03-21 13:04:00,
2013-03-21 06:09:00,35.3,32.7,30.17,SSW,207,4.0,6.0,90,0.00,,,0.00,0,Wunderground v.1.15,2013-03-21 13:09:00,
2013-03-21 06:14:00,35.2,32.6,30.17,SSW,204,3.0,5.0,90,0.00,,,0.00,0,Wunderground v.1.15,2013-03-21 13:14:00,
2013-03-21 06:19:00,35.1,32.5,30.17,SSW,211,4.0,5.0,90,0.00,,,0.00,0,Wunderground v.1.15,2013-03-21 13:19:00,
2013-03-21 06:24:00,34.7,32.1,30.17,SSW,203,4.0,6.0,90,0.00,,,0.00,0,Wunderground v.1.15,2013-03-21 13:24:00,
2013-03-21 06:29:00,34.7,32.1,30.17,SSW,209,4.0,6.0,90,0.00,,,0.00,0,Wunderground v.1.15,2013-03-21 13:29:00,
2013-03-21 06:34:00,34.6,32.0,30.17,SSW,205,5.0,6.0,90,0.00,,,0.00,0,Wunderground v.1.15,2013-03-21 13:34:00,
2013-03-21 06:39:00,34.6,31.7,30.17,SSW,196,5.0,7.0,89,0.00,,,0.00,0,Wunderground v.1.15,2013-03-21 13:39:00,
2013-03-21 06:44:00,34.5,31.6,30.17,SSW,196,3.0,5.0,89,0.00,,,0.00,0,Wunderground v.1.15,2013-03-21 13:44:00,
2013-03-21 06:49:00,34.4,31.5,30.17,SSW,196,4.0,5.0,89,0.00,,,0.00,0,Wunderground v.1.15,2013-03-21 13:49:00,
2013-03-21 06:54:00,34.4,31.5,30.17,South,171,4.0,5.0,89,0.00,,,0.00,0,Wunderground v.1.15,2013-03-21 13:54:00,
2013-03-21 06:59:00,34.5,31.6,30.17,South,171,4.0,6.0,89,0.00,,,0.00,0,Wunderground v.1.15,2013-03-21 13:59:00,
2013-03-21 07:04:00,34.6,31.7,30.17,South,171,2.0,6.0,89,0.00,,,0.00,0,Wunderground v.1.15,2013-03-21 14:04:00,
2013-03-21 07:09:00,34.4,31.5,30.17,South,171,1.0,6.0,89,0.00,,,0.00,0,Wunderground v.1.15,2013-03-21 14:09:00,
2013-03-21 07:14:00,34.4,31.5,30.17,South,171,2.0,4.0,89,0.00,,,0.00,5,Wunderground v.1.15,2013-03-21 14:14:00,
2013-03-21 07:19:00,34.6,31.7,30.18,South,171,0.0,4.0,89,0.00,,,0.00,7,Wunderground v.1.15,2013-03-21 14:19:00,
2013-03-21 07:24:00,34.5,31.6,30.18,South,179,0.0,2.0,89,0.00,,,0.00,12,Wunderground v.1.15,2013-03-21 14:24:00,
2013-03-21 07:29:00,34.2,31.6,30.18,South,179,0.0,2.0,90,0.00,,,0.00,19,Wunderground v.1.15,2013-03-21 14:29:00,
2013-03-21 07:34:00,34.1,31.2,30.18,SSE,160,0.0,1.0,89,0.00,,,0.00,23,Wunderground v.1.15,2013-03-21 14:34:00,
2013-03-21 07:39:00,34.3,31.4,30.18,SSE,156,0.0,1.0,89,0.00,,,0.00,18,Wunderground v.1.15,2013-03-21 14:39:00,
2013-03-21 07:44:00,34.4,31.5,30.18,South,169,0.0,1.0,89,0.00,,,0.00,14,Wunderground v.1.15,2013-03-21 14:44:00,
2013-03-21 07:49:00,34.4,31.5,30.18,South,169,0.0,1.0,89,0.00,,,0.00,18,Wunderground v.1.15,2013-03-21 14:49:00,
2013-03-21 07:54:00,34.4,31.5,30.18,South,181,1.0,2.0,89,0.00,,,0.00,21,Wunderground v.1.15,2013-03-21 14:54:00,
2013-03-21 07:59:00,34.5,31.6,30.18,SSW,205,3.0,4.0,89,0.00,,,0.00,25,Wunderground v.1.15,2013-03-21 14:59:00,
2013-03-21 08:04:00,34.6,31.7,30.18,SSW,207,2.0,5.0,89,0.00,,,0.00,37,Wunderground v.1.15,2013-03-21 15:04:00,
2013-03-21 08:09:00,34.8,31.9,30.19,South,190,3.0,5.0,89,0.00,,,0.00,54,Wunderground v.1.15,2013-03-21 15:09:00,
2013-03-21 08:14:00,35.2,32.3,30.19,South,184,3.0,4.0,89,0.00,,,0.00,149,Wunderground v.1.15,2013-03-21 15:14:00,
2013-03-21 08:19:00,35.8,32.9,30.19,South,179,1.0,5.0,89,0.00,,,0.00,163,Wunderground v.1.15,2013-03-21 15:19:00,
2013-03-21 08:24:00,36.4,33.5,30.19,South,179,2.0,3.0,89,0.00,,,0.00,118,Wunderground v.1.15,2013-03-21 15:24:00,
2013-03-21 08:29:00,36.6,33.7,30.18,South,179,2.0,4.0,89,0.00,,,0.00,213,Wunderground v.1.15,2013-03-21 15:29:00,
2013-03-21 08:34:00,37.1,34.2,30.19,SSW,196,4.0,5.0,89,0.00,,,0.00,102,Wunderground v.1.15,2013-03-21 15:34:00,
2013-03-21 08:39:00,37.1,34.4,30.19,SSW,207,5.0,7.0,90,0.00,,,0.00,90,Wunderground v.1.15,2013-03-21 15:39:00,
2013-03-21 08:44:00,37.3,34.6,30.19,SSW,202,3.0,5.0,90,0.00,,,0.00,83,Wunderground v.1.15,2013-03-21 15:44:00,
2013-03-21 08:49:00,37.4,34.7,30.19,SSW,211,3.0,5.0,90,0.00,,,0.00,84,Wunderground v.1.15,2013-03-21 15:49:00,
2013-03-21 08:54:00,37.4,34.7,30.20,South,184,3.0,5.0,90,0.00,,,0.00,70,Wunderground v.1.15,2013-03-21 15:54:00,
2013-03-21 08:59:00,37.4,34.7,30.20,South,184,2.0,5.0,90,0.00,,,0.00,63,Wunderground v.1.15,2013-03-21 15:59:00,
2013-03-21 09:04:00,37.5,34.8,30.20,South,184,0.0,3.0,90,0.00,,,0.00,128,Wunderground v.1.15,2013-03-21 16:04:00,
2013-03-21 09:09:00,37.7,35.0,30.20,SW,230,4.0,5.0,90,0.00,,,0.00,104,Wunderground v.1.15,2013-03-21 16:09:00,
2013-03-21 09:14:00,38.0,35.6,30.20,SSW,203,4.0,6.0,91,0.00,,,0.00,83,Wunderground v.1.15,2013-03-21 16:14:00,
2013-03-21 09:19:00,38.0,35.6,30.20,SSW,207,4.0,6.0,91,0.00,,,0.00,65,Wunderground v.1.15,2013-03-21 16:19:00,
2013-03-21 09:24:00,38.1,35.7,30.20,SSW,210,2.0,4.0,91,0.00,,,0.00,95,Wunderground v.1.15,2013-03-21 16:24:00,
2013-03-21 09:29:00,38.1,35.7,30.20,SSW,210,4.0,4.0,91,0.00,,,0.00,109,Wunderground v.1.15,2013-03-21 16:29:00,
2013-03-21 09:35:00,38.2,35.8,30.20,SW,225,6.0,6.0,91,0.00,,,0.00,116,Wunderground v.1.15,2013-03-21 16:35:00,
2013-03-21 09:40:00,38.3,35.9,30.20,SW,225,3.0,6.0,91,0.00,,,0.01,128,Wunderground v.1.15,2013-03-21 16:40:00,
2013-03-21 09:45:00,38.5,36.1,30.21,SW,219,5.0,5.0,91,0.00,,,0.01,134,Wunderground v.1.15,2013-03-21 16:45:00,
2013-03-21 09:50:00,38.8,36.4,30.21,SSW,203,7.0,7.0,91,0.00,,,0.01,141,Wunderground v.1.15,2013-03-21 16:50:00,
2013-03-21 09:55:00,39.0,36.6,30.21,SSW,192,4.0,10.0,91,0.00,,,0.01,148,Wunderground v.1.15,2013-03-21 16:55:00,
2013-03-21 10:00:00,39.2,36.8,30.20,SSW,194,6.0,6.0,91,0.00,,,0.01,183,Wunderground v.1.15,2013-03-21 17:00:00,
2013-03-21 10:05:00,39.4,37.0,30.21,SSW,211,7.0,10.0,91,0.00,,,0.01,325,Wunderground v.1.15,2013-03-21 17:05:00,
2013-03-21 10:10:00,39.8,37.4,30.21,SSW,205,8.0,10.0,91,0.00,,,0.01,279,Wunderground v.1.15,2013-03-21 17:10:00,
2013-03-21 10:15:00,39.6,37.2,30.21,SSW,194,5.0,9.0,91,0.00,,,0.01,227,Wunderground v.1.15,2013-03-21 17:15:00,
2013-03-21 10:20:00,39.6,37.2,30.21,South,191,9.0,10.0,91,0.00,,,0.01,244,Wunderground v.1.15,2013-03-21 17:20:00,
2013-03-21 10:25:00,39.9,37.2,30.21,SSW,207,9.0,12.0,90,0.00,,,0.01,415,Wunderground v.1.15,2013-03-21 17:25:00,
2013-03-21 10:30:00,39.8,37.1,30.21,SSW,204,5.0,12.0,90,0.00,,,0.01,309,Wunderground v.1.15,2013-03-21 17:30:00,
2013-03-21 10:35:00,40.4,38.0,30.21,SSW,196,8.0,11.0,91,0.00,,,0.01,274,Wunderground v.1.15,2013-03-21 17:35:00,
2013-03-21 10:40:00,40.8,38.4,30.22,SW,230,8.0,8.0,91,0.00,,,0.01,332,Wunderground v.1.15,2013-03-21 17:40:00,
2013-03-21 10:45:00,40.6,37.9,30.22,SSW,196,8.0,13.0,90,0.00,,,0.01,265,Wunderground v.1.15,2013-03-21 17:45:00,
2013-03-21 10:50:00,40.5,37.5,30.22,SSW,211,8.0,9.0,89,0.00,,,0.01,264,Wunderground v.1.15,2013-03-21 17:50:00,
2013-03-21 10:55:00,40.4,37.4,30.23,WSW,238,3.0,10.0,89,0.00,,,0.01,223,Wunderground v.1.15,2013-03-21 17:55:00,
2013-03-21 11:00:00,40.5,37.5,30.23,SW,223,7.0,7.0,89,0.00,,,0.01,70,Wunderground v.1.15,2013-03-21 18:00:00,
2013-03-21 11:05:00,40.2,37.2,30.23,SW,227,5.0,8.0,89,0.00,,,0.01,84,Wunderground v.1.15,2013-03-21 18:05:00,
2013-03-21 11:10:00,40.0,37.0,30.23,West,262,0.0,4.0,89,0.00,,,0.02,100,Wunderground v.1.15,2013-03-21 18:10:00,
2013-03-21 11:15:00,39.9,37.2,30.23,NNW,342,6.0,6.0,90,0.08,,,0.03,79,Wunderground v.1.15,2013-03-21 18:15:00,
2013-03-21 11:20:00,39.2,36.2,30.23,NW,313,2.0,3.0,89,0.12,,,0.04,151,Wunderground v.1.15,2013-03-21 18:20:00,
2013-03-21 11:25:00,39.3,36.6,30.23,SSW,204,4.0,5.0,90,0.11,,,0.04,232,Wunderground v.1.15,2013-03-21 18:25:00,
2013-03-21 11:30:00,39.9,37.5,30.23,SSW,198,1.0,2.0,91,0.06,,,0.04,364,Wunderground v.1.15,2013-03-21 18:30:00,
2013-03-21 11:35:00,40.7,38.3,30.22,SSW,198,2.0,4.0,91,0.04,,,0.04,601,Wunderground v.1.15,2013-03-21 18:35:00,
2013-03-21 11:40:00,41.1,38.1,30.22,WSW,255,2.0,2.0,89,0.00,,,0.05,355,Wunderground v.1.15,2013-03-21 18:40:00,
2013-03-21 11:45:00,41.6,38.6,30.22,SW,217,2.0,3.0,89,0.00,,,0.05,666,Wunderground v.1.15,2013-03-21 18:45:00,
2013-03-21 11:50:00,42.6,39.6,30.22,SSW,194,0.0,1.0,89,0.00,,,0.05,703,Wunderground v.1.15,2013-03-21 18:50:00,
2013-03-21 11:55:00,43.2,39.9,30.22,South,171,6.0,6.0,88,0.00,,,0.05,745,Wunderground v.1.15,2013-03-21 18:55:00,
2013-03-21 12:01:00,42.8,39.2,30.22,SSW,213,0.0,3.0,87,0.00,,,0.05,211,Wunderground v.1.15,2013-03-21 19:01:00,
2013-03-21 12:06:00,42.4,38.5,30.21,SE,140,4.0,8.0,86,0.00,,,0.05,174,Wunderground v.1.15,2013-03-21 19:06:00,
2013-03-21 12:11:00,42.2,38.0,30.22,South,184,8.0,9.0,85,0.00,,,0.05,253,Wunderground v.1.15,2013-03-21 19:11:00,
2013-03-21 12:16:00,42.8,38.3,30.21,South,183,3.0,9.0,84,0.00,,,0.05,592,Wunderground v.1.15,2013-03-21 19:16:00,
2013-03-21 12:21:00,43.7,39.2,30.21,SSW,205,5.0,13.0,84,0.00,,,0.05,427,Wunderground v.1.15,2013-03-21 19:21:00,
2013-03-21 12:26:00,43.6,37.8,30.21,SW,221,7.0,13.0,80,0.00,,,0.05,255,Wunderground v.1.15,2013-03-21 19:26:00,
2013-03-21 12:31:00,43.6,38.5,30.21,SSW,192,9.0,10.0,82,0.00,,,0.05,325,Wunderground v.1.15,2013-03-21 19:31:00,
2013-03-21 12:36:00,43.5,37.4,30.21,South,169,5.0,11.0,79,0.00,,,0.05,292,Wunderground v.1.15,2013-03-21 19:36:00,
2013-03-21 12:41:00,43.6,38.5,30.21,SSW,198,2.0,6.0,82,0.00,,,0.05,183,Wunderground v.1.15,2013-03-21 19:41:00,
2013-03-21 12:46:00,43.7,37.6,30.22,WSW,246,15.0,17.0,79,0.00,,,0.05,95,Wunderground v.1.15,2013-03-21 19:46:00,
2013-03-21 12:51:00,41.5,36.7,30.21,WNW,287,7.0,11.0,83,0.00,,,0.06,243,Wunderground v.1.15,2013-03-21 19:51:00,
2013-03-21 12:57:00,41.6,36.8,30.21,WSW,252,10.0,14.0,83,0.00,,,0.06,497,Wunderground v.1.15,2013-03-21 19:57:00,
2013-03-21 13:02:00,42.5,37.4,30.21,WSW,246,10.0,12.0,82,0.00,,,0.06,698,Wunderground v.1.15,2013-03-21 20:02:00,
2013-03-21 13:07:00,43.5,38.7,30.21,SW,221,9.0,12.0,83,0.00,,,0.06,691,Wunderground v.1.15,2013-03-21 20:07:00,
2013-03-21 13:12:00,43.7,37.6,30.21,WSW,240,10.0,10.0,79,0.00,,,0.06,687,Wunderground v.1.15,2013-03-21 20:12:00,
2013-03-21 13:17:00,44.2,38.4,30.21,WSW,245,6.0,10.0,80,0.00,,,0.06,694,Wunderground v.1.15,2013-03-21 20:17:00,
2013-03-21 13:22:00,44.8,38.0,30.20,South,179,10.0,11.0,77,0.00,,,0.06,795,Wunderground v.1.15,2013-03-21 20:22:00,
2013-03-21 13:27:00,45.8,39.7,30.20,WSW,238,10.0,11.0,79,0.00,,,0.06,323,Wunderground v.1.15,2013-03-21 20:27:00,
2013-03-21 13:32:00,45.2,38.7,30.20,SSW,192,13.0,13.0,78,0.00,,,0.06,759,Wunderground v.1.15,2013-03-21 20:32:00,
2013-03-21 13:37:00,45.3,38.8,30.20,South,185,10.0,13.0,78,0.00,,,0.06,791,Wunderground v.1.15,2013-03-21 20:37:00,
2013-03-21 13:42:00,45.7,39.2,30.19,South,188,11.0,13.0,78,0.00,,,0.06,454,Wunderground v.1.15,2013-03-21 20:42:00,
2013-03-21 13:48:00,45.9,39.4,30.19,SW,215,9.0,13.0,78,0.00,,,0.06,846,Wunderground v.1.15,2013-03-21 20:48:00,
2013-03-21 13:53:00,45.9,37.7,30.19,WSW,251,8.0,14.0,73,0.00,,,0.06,316,Wunderground v.1.15,2013-03-21 20:53:00,
2013-03-21 13:58:00,45.7,38.9,30.18,SW,216,10.0,14.0,77,0.00,,,0.06,241,Wunderground v.1.15,2013-03-21 20:58:00,
2013-03-21 14:03:00,45.5,37.3,30.19,WNW,288,5.0,13.0,73,0.00,,,0.06,141,Wunderground v.1.15,2013-03-21 21:03:00,
2013-03-21 14:08:00,45.4,37.6,30.19,WSW,251,8.0,14.0,74,0.00,,,0.06,144,Wunderground v.1.15,2013-03-21 21:08:00,
2013-03-21 14:13:00,44.3,37.2,30.19,NW,321,10.0,12.0,76,0.00,,,0.06,162,Wunderground v.1.15,2013-03-21 21:13:00,
2013-03-21 14:18:00,42.9,37.8,30.20,WNW,293,8.0,15.0,82,0.00,,,0.06,104,Wunderground v.1.15,2013-03-21 21:18:00,
2013-03-21 14:23:00,42.5,37.4,30.19,West,271,7.0,12.0,82,0.00,,,0.07,142,Wunderground v.1.15,2013-03-21 21:23:00,
2013-03-21 14:28:00,43.0,38.8,30.19,WSW,252,6.0,12.0,85,0.00,,,0.07,689,Wunderground v.1.15,2013-03-21 21:28:00,
2013-03-21 14:33:00,44.1,39.3,30.19,WSW,244,2.0,7.0,83,0.00,,,0.07,707,Wunderground v.1.15,2013-03-21 21:33:00,
2013-03-21 14:39:00,45.2,37.7,30.18,SSW,206,4.0,8.0,75,0.00,,,0.07,276,Wunderground v.1.15,2013-03-21 21:39:00,
2013-03-21 14:44:00,45.5,36.6,30.18,SW,224,4.0,7.0,71,0.00,,,0.07,287,Wunderground v.1.15,2013-03-21 21:44:00,
2013-03-21 14:49:00,45.8,36.6,30.18,WSW,240,5.0,7.0,70,0.00,,,0.07,345,Wunderground v.1.15,2013-03-21 21:49:00,
2013-03-21 14:54:00,46.3,37.0,30.18,WSW,252,7.0,11.0,70,0.00,,,0.07,411,Wunderground v.1.15,2013-03-21 21:54:00,
2013-03-21 14:59:00,46.9,37.6,30.17,SW,229,6.0,13.0,70,0.00,,,0.07,842,Wunderground v.1.15,2013-03-21 21:59:00,
2013-03-21 15:04:00,47.9,38.9,30.17,SSW,207,11.0,15.0,71,0.00,,,0.07,853,Wunderground v.1.15,2013-03-21 22:04:00,
2013-03-21 15:09:00,47.9,37.5,30.17,SW,228,8.0,18.0,67,0.00,,,0.07,819,Wunderground v.1.15,2013-03-21 22:09:00,
2013-03-21 15:14:00,47.3,38.4,30.17,SW,236,11.0,15.0,71,0.00,,,0.07,367,Wunderground v.1.15,2013-03-21 22:14:00,
2013-03-21 15:19:00,46.7,38.1,30.18,WSW,253,8.0,15.0,72,0.00,,,0.07,788,Wunderground v.1.15,2013-03-21 22:19:00,
2013-03-21 15:24:00,46.9,39.0,30.18,SW,224,8.0,18.0,74,0.00,,,0.07,835,Wunderground v.1.15,2013-03-21 22:24:00,
2013-03-21 15:29:00,46.4,38.9,30.18,SSW,192,6.0,18.0,75,0.00,,,0.07,243,Wunderground v.1.15,2013-03-21 22:29:00,
2013-03-21 15:34:00,46.6,38.4,30.18,WSW,257,8.0,12.0,73,0.00,,,0.07,167,Wunderground v.1.15,2013-03-21 22:34:00,
2013-03-21 15:39:00,46.0,37.5,30.18,WSW,256,4.0,12.0,72,0.00,,,0.07,135,Wunderground v.1.15,2013-03-21 22:39:00,
2013-03-21 15:44:00,45.6,37.4,30.18,WNW,297,13.0,19.0,73,0.00,,,0.07,137,Wunderground v.1.15,2013-03-21 22:44:00,
2013-03-21 15:49:00,44.6,37.2,30.18,WSW,238,14.0,21.0,75,0.00,,,0.07,167,Wunderground v.1.15,2013-03-21 22:49:00,
2013-03-21 15:54:00,42.9,36.8,30.19,WSW,252,12.0,19.0,79,0.00,,,0.08,121,Wunderground v.1.15,2013-03-21 22:54:00,
2013-03-21 15:59:00,41.4,36.9,30.19,West,275,14.0,19.0,84,0.21,,,0.10,165,Wunderground v.1.15,2013-03-21 22:59:00,
2013-03-21 16:04:00,41.2,37.0,30.19,WSW,244,4.0,15.0,85,0.09,,,0.10,172,Wunderground v.1.15,2013-03-21 23:04:00,
2013-03-21 16:09:00,41.7,37.8,30.19,WSW,257,5.0,15.0,86,0.05,,,0.10,302,Wunderground v.1.15,2013-03-21 23:09:00,
2013-03-21 16:14:00,42.4,38.8,30.18,WSW,252,3.0,11.0,87,0.04,,,0.10,192,Wunderground v.1.15,2013-03-21 23:14:00,
2013-03-21 16:19:00,43.3,39.1,30.18,West,266,3.0,11.0,85,0.00,,,0.10,504,Wunderground v.1.15,2013-03-21 23:19:00,
2013-03-21 16:24:00,44.3,38.5,30.18,WSW,240,10.0,13.0,80,0.00,,,0.10,510,Wunderground v.1.15,2013-03-21 23:24:00,
2013-03-21 16:29:00,44.8,38.7,30.19,WSW,252,8.0,14.0,79,0.00,,,0.10,522,Wunderground v.1.15,2013-03-21 23:29:00,
2013-03-21 16:34:00,45.2,37.7,30.19,West,279,8.0,13.0,75,0.00,,,0.10,185,Wunderground v.1.15,2013-03-21 23:34:00,
2013-03-21 16:39:00,45.2,37.1,30.20,WSW,257,7.0,14.0,73,0.00,,,0.10,192,Wunderground v.1.15,2013-03-21 23:39:00,
2013-03-21 16:44:00,45.0,36.2,30.20,West,278,15.0,17.0,71,0.00,,,0.10,132,Wunderground v.1.15,2013-03-21 23:44:00,
2013-03-21 16:49:00,43.7,36.6,30.20,NW,324,11.0,24.0,76,0.00,,,0.10,128,Wunderground v.1.15,2013-03-21 23:49:00,
2013-03-21 16:54:00,42.4,36.7,30.20,WNW,295,14.0,19.0,80,0.00,,,0.10,183,Wunderground v.1.15,2013-03-21 23:54:00,
2013-03-21 16:59:00,42.7,37.6,30.20,WSW,253,7.0,19.0,82,0.00,,,0.10,427,Wunderground v.1.15,2013-03-21 23:59:00,
2013-03-21 17:04:00,43.2,37.4,30.20,WSW,243,11.0,15.0,80,0.00,,,0.10,374,Wunderground v.1.15,2013-03-22 00:04:00,
2013-03-21 17:09:00,43.4,37.6,30.20,West,263,2.0,15.0,80,0.00,,,0.10,341,Wunderground v.1.15,2013-03-22 00:09:00,
2013-03-21 17:14:00,43.7,38.3,30.20,WSW,246,11.0,15.0,81,0.00,,,0.10,343,Wunderground v.1.15,2013-03-22 00:14:00,
2013-03-21 17:19:00,43.2,37.8,30.21,WSW,255,6.0,20.0,81,0.00,,,0.10,234,Wunderground v.1.15,2013-03-22 00:19:00,
2013-03-21 17:24:00,42.4,37.0,30.20,WSW,252,7.0,18.0,81,0.00,,,0.10,88,Wunderground v.1.15,2013-03-22 00:24:00,
2013-03-21 17:29:00,41.9,36.8,30.20,WSW,251,8.0,18.0,82,0.00,,,0.10,63,Wunderground v.1.15,2013-03-22 00:29:00,
2013-03-21 17:34:00,41.2,36.1,30.21,WSW,242,8.0,13.0,82,0.00,,,0.10,93,Wunderground v.1.15,2013-03-22 00:34:00,
2013-03-21 17:39:00,41.1,36.3,30.21,WSW,255,4.0,13.0,83,0.00,,,0.10,134,Wunderground v.1.15,2013-03-22 00:39:00,
2013-03-21 17:44:00,41.3,37.1,30.21,West,265,6.0,11.0,85,0.00,,,0.10,251,Wunderground v.1.15,2013-03-22 00:44:00,
2013-03-21 17:49:00,41.4,36.9,30.22,West,265,5.0,14.0,84,0.00,,,0.10,176,Wunderground v.1.15,2013-03-22 00:49:00,
2013-03-21 17:54:00,41.4,36.6,30.21,WSW,258,7.0,9.0,83,0.00,,,0.10,162,Wunderground v.1.15,2013-03-22 00:54:00,
2013-03-21 17:59:00,41.6,36.5,30.21,WNW,282,20.0,24.0,82,0.00,,,0.10,227,Wunderground v.1.15,2013-03-22 00:59:00,
2013-03-21 18:04:00,41.6,36.5,30.21,WNW,291,14.0,20.0,82,0.00,,,0.10,283,Wunderground v.1.15,2013-03-22 01:04:00,
2013-03-21 18:09:00,41.5,36.4,30.21,West,267,8.0,23.0,82,0.00,,,0.10,223,Wunderground v.1.15,2013-03-22 01:09:00,
2013-03-21 18:14:00,41.3,36.2,30.20,West,277,14.0,23.0,82,0.00,,,0.10,176,Wunderground v.1.15,2013-03-22 01:14:00,
2013-03-21 18:19:00,40.8,35.7,30.21,West,261,7.0,23.0,82,0.00,,,0.10,44,Wunderground v.1.15,2013-03-22 01:19:00,
2013-03-21 18:24:00,40.4,35.6,30.22,WNW,292,13.0,14.0,83,0.00,,,0.10,76,Wunderground v.1.15,2013-03-22 01:24:00,
2013-03-21 18:29:00,40.2,35.8,30.22,West,275,12.0,18.0,84,0.00,,,0.10,46,Wunderground v.1.15,2013-03-22 01:29:00,
2013-03-21 18:34:00,40.0,35.3,30.21,WNW,283,9.0,11.0,83,0.00,,,0.10,77,Wunderground v.1.15,2013-03-22 01:34:00,
2013-03-21 18:39:00,40.2,35.4,30.22,WNW,288,11.0,18.0,83,0.00,,,0.10,102,Wunderground v.1.15,2013-03-22 01:39:00,
2013-03-21 18:44:00,40.0,34.9,30.21,West,273,7.0,20.0,82,0.00,,,0.10,97,Wunderground v.1.15,2013-03-22 01:44:00,
2013-03-21 18:49:00,39.9,34.9,30.21,West,267,7.0,20.0,82,0.00,,,0.10,72,Wunderground v.1.15,2013-03-22 01:49:00,
2013-03-21 18:54:00,39.8,35.1,30.22,WNW,287,9.0,12.0,83,0.00,,,0.10,63,Wunderground v.1.15,2013-03-22 01:54:00,
2013-03-21 18:59:00,39.5,34.8,30.22,West,281,9.0,12.0,83,0.00,,,0.10,23,Wunderground v.1.15,2013-03-22 01:59:00,
2013-03-21 19:04:00,39.3,34.9,30.22,WSW,252,6.0,8.0,84,0.00,,,0.10,18,Wunderground v.1.15,2013-03-22 02:04:00,
2013-03-21 19:09:00,38.9,34.5,30.21,SW,224,5.0,8.0,84,0.00,,,0.10,14,Wunderground v.1.15,2013-03-22 02:09:00,
2013-03-21 19:14:00,38.6,34.5,30.21,WSW,252,4.0,7.0,85,0.00,,,0.10,11,Wunderground v.1.15,2013-03-22 02:14:00,
2013-03-21 19:19:00,38.6,34.2,30.22,WSW,248,3.0,7.0,84,0.00,,,0.10,9,Wunderground v.1.15,2013-03-22 02:19:00,
2013-03-21 19:25:00,38.7,34.3,30.22,WSW,248,0.0,6.0,84,0.00,,,0.10,5,Wunderground v.1.15,2013-03-22 02:25:00,
2013-03-21 19:30:00,38.7,34.0,30.22,WSW,251,1.0,6.0,83,0.00,,,0.10,0,Wunderground v.1.15,2013-03-22 02:30:00,
2013-03-21 19:35:00,38.7,34.0,30.22,West,270,6.0,6.0,83,0.00,,,0.10,0,Wunderground v.1.15,2013-03-22 02:35:00,
2013-03-21 19:40:00,38.5,33.8,30.22,West,271,4.0,4.0,83,0.00,,,0.10,0,Wunderground v.1.15,2013-03-22 02:40:00,
2013-03-21 19:45:00,38.4,33.4,30.23,West,262,1.0,6.0,82,0.00,,,0.10,0,Wunderground v.1.15,2013-03-22 02:45:00,
2013-03-21 19:50:00,38.2,33.5,30.23,West,277,2.0,3.0,83,0.00,,,0.10,0,Wunderground v.1.15,2013-03-22 02:50:00,
2013-03-21 19:55:00,38.0,33.6,30.23,West,277,4.0,5.0,84,0.00,,,0.10,0,Wunderground v.1.15,2013-03-22 02:55:00,
2013-03-21 20:00:00,37.7,33.0,30.23,WSW,248,3.0,4.0,83,0.00,,,0.10,0,Wunderground v.1.15,2013-03-22 03:00:00,
2013-03-21 20:05:00,37.6,33.2,30.23,West,269,3.0,5.0,84,0.00,,,0.10,0,Wunderground v.1.15,2013-03-22 03:05:00,
2013-03-21 20:10:00,37.0,32.6,30.23,WSW,250,4.0,4.0,84,0.00,,,0.10,0,Wunderground v.1.15,2013-03-22 03:10:00,
2013-03-21 20:15:00,36.7,32.6,30.24,WSW,251,3.0,5.0,85,0.00,,,0.10,0,Wunderground v.1.15,2013-03-22 03:15:00,
2013-03-21 20:20:00,37.2,32.8,30.24,SW,226,4.0,4.0,84,0.00,,,0.10,0,Wunderground v.1.15,2013-03-22 03:20:00,
2013-03-21 20:25:00,37.6,32.9,30.24,SW,226,3.0,4.0,83,0.00,,,0.10,0,Wunderground v.1.15,2013-03-22 03:25:00,
2013-03-21 20:30:00,37.9,32.9,30.24,SW,221,2.0,3.0,82,0.00,,,0.10,0,Wunderground v.1.15,2013-03-22 03:30:00,
2013-03-21 20:35:00,37.9,32.9,30.24,WNW,298,4.0,8.0,82,0.00,,,0.10,0,Wunderground v.1.15,2013-03-22 03:35:00,
2013-03-21 20:40:00,38.0,33.3,30.24,WNW,299,2.0,4.0,83,0.00,,,0.10,0,Wunderground v.1.15,2013-03-22 03:40:00,
2013-03-21 20:45:00,37.8,33.4,30.24,WNW,299,2.0,4.0,84,0.00,,,0.10,0,Wunderground v.1.15,2013-03-22 03:45:00,
2013-03-21 20:50:00,37.7,33.3,30.24,WNW,299,4.0,5.0,84,0.00,,,0.10,0,Wunderground v.1.15,2013-03-22 03:50:00,
2013-03-21 20:55:00,37.9,33.5,30.24,WSW,250,5.0,7.0,84,0.00,,,0.10,0,Wunderground v.1.15,2013-03-22 03:55:00,
2013-03-21 21:00:00,38.0,33.6,30.25,WSW,249,3.0,3.0,84,0.00,,,0.10,0,Wunderground v.1.15,2013-03-22 04:00:00,
2013-03-21 21:02:00,38.0,33.6,30.25,WSW,249,3.0,3.0,84,0.00,,,0.10,0,Wunderground v.1.15,2013-03-22 04:02:00,
2013-03-21 21:07:00,38.0,33.6,30.25,WNW,299,5.0,5.0,84,0.00,,,0.10,0,Wunderground v.1.15,2013-03-22 04:07:00,
2013-03-21 21:12:00,38.1,33.7,30.25,WNW,292,2.0,7.0,84,0.00,,,0.10,0,Wunderground v.1.15,2013-03-22 04:12:00,
2013-03-21 21:17:00,38.1,34.0,30.25,WNW,282,4.0,8.0,85,0.00,,,0.10,0,Wunderground v.1.15,2013-03-22 04:17:00,
2013-03-21 21:22:00,38.0,34.2,30.25,WNW,296,4.0,7.0,86,0.00,,,0.11,0,Wunderground v.1.15,2013-03-22 04:22:00,
2013-03-21 21:27:00,37.8,34.0,30.25,WSW,241,7.0,8.0,86,0.00,,,0.11,0,Wunderground v.1.15,2013-03-22 04:27:00,
2013-03-21 21:32:00,37.6,34.1,30.25,SW,234,6.0,8.0,87,0.00,,,0.11,0,Wunderground v.1.15,2013-03-22 04:32:00,
2013-03-21 21:37:00,37.3,34.1,30.25,WSW,240,1.0,8.0,88,0.00,,,0.11,0,Wunderground v.1.15,2013-03-22 04:37:00,
2013-03-21 21:42:00,37.1,33.9,30.26,WSW,240,0.0,4.0,88,0.00,,,0.11,0,Wunderground v.1.15,2013-03-22 04:42:00,
2013-03-21 21:47:00,37.0,34.1,30.26,WSW,240,1.0,4.0,89,0.00,,,0.11,0,Wunderground v.1.15,2013-03-22 04:47:00,
2013-03-21 21:52:00,36.8,33.9,30.26,WSW,240,1.0,2.0,89,0.00,,,0.11,0,Wunderground v.1.15,2013-03-22 04:52:00,
2013-03-21 21:57:00,36.8,33.9,30.26,WSW,240,0.0,2.0,89,0.00,,,0.11,0,Wunderground v.1.15,2013-03-22 04:57:00,
2013-03-21 22:02:00,36.8,34.1,30.26,WSW,240,1.0,2.0,90,0.00,,,0.11,0,Wunderground v.1.15,2013-03-22 05:02:00,
2013-03-21 22:07:00,36.9,34.2,30.26,North,355,5.0,6.0,90,0.00,,,0.11,0,Wunderground v.1.15,2013-03-22 05:07:00,
2013-03-21 22:12:00,36.3,33.6,30.27,NW,319,7.0,10.0,90,0.00,,,0.11,0,Wunderground v.1.15,2013-03-22 05:12:00,
2013-03-21 22:17:00,35.7,33.1,30.26,NNW,347,7.0,10.0,90,0.00,,,0.12,0,Wunderground v.1.15,2013-03-22 05:17:00,
2013-03-21 22:22:00,35.5,32.9,30.26,WSW,257,3.0,6.0,90,0.11,,,0.13,0,Wunderground v.1.15,2013-03-22 05:22:00,
2013-03-21 22:27:00,35.5,33.1,30.25,WSW,250,4.0,7.0,91,0.07,,,0.13,0,Wunderground v.1.15,2013-03-22 05:27:00,
2013-03-21 22:32:00,35.4,33.0,30.25,West,265,5.0,6.0,91,0.07,,,0.14,0,Wunderground v.1.15,2013-03-22 05:32:00,
2013-03-21 22:37:00,35.2,32.8,30.25,SW,234,4.0,6.0,91,0.06,,,0.14,0,Wunderground v.1.15,2013-03-22 05:37:00,
2013-03-21 22:42:00,34.8,32.4,30.25,WSW,250,6.0,6.0,91,0.04,,,0.14,0,Wunderground v.1.15,2013-03-22 05:42:00,
2013-03-21 22:47:00,34.7,32.3,30.26,WSW,241,6.0,8.0,91,0.00,,,0.14,0,Wunderground v.1.15,2013-03-22 05:47:00,
2013-03-21 22:52:00,34.6,32.0,30.26,SW,227,6.0,8.0,90,0.00,,,0.14,0,Wunderground v.1.15,2013-03-22 05:52:00,
2013-03-21 22:57:00,34.5,31.9,30.25,SSW,206,5.0,8.0,90,0.00,,,0.14,0,Wunderground v.1.15,2013-03-22 05:57:00,
2013-03-21 23:02:00,34.4,31.8,30.25,SSW,196,5.0,8.0,90,0.00,,,0.14,0,Wunderground v.1.15,2013-03-22 06:02:00,
2013-03-21 23:08:00,34.2,31.6,30.25,SSW,196,6.0,8.0,90,0.00,,,0.14,0,Wunderground v.1.15,2013-03-22 06:08:00,
2013-03-21 23:13:00,34.1,31.5,30.25,SSW,196,7.0,7.0,90,0.00,,,0.14,0,Wunderground v.1.15,2013-03-22 06:13:00,
2013-03-21 23:17:00,34.0,31.4,30.25,SSW,196,4.0,9.0,90,0.00,,,0.14,0,Wunderground v.1.15,2013-03-22 06:17:00,
2013-03-21 23:23:00,33.8,32.8,30.25,SSW,196,4.0,6.0,96,0.00,,,0.14,0,Wunderground v.1.15,2013-03-22 06:23:00,
2013-03-21 23:28:00,33.5,30.6,30.25,SSW,196,3.0,6.0,89,0.00,,,0.14,0,Wunderground v.1.15,2013-03-22 06:28:00,
2013-03-21 23:33:00,33.5,30.6,30.26,SSW,196,2.0,4.0,89,0.00,,,0.14,0,Wunderground v.1.15,2013-03-22 06:33:00,
2013-03-21 23:38:00,33.2,30.6,30.26,SSW,196,1.0,4.0,90,0.00,,,0.14,0,Wunderground v.1.15,2013-03-22 06:38:00,
2013-03-21 23:43:00,32.9,30.3,30.26,SSW,196,0.0,3.0,90,0.00,,,0.14,0,Wunderground v.1.15,2013-03-22 06:43:00,
2013-03-21 23:48:00,32.8,29.9,30.26,SSW,196,3.0,4.0,89,0.00,,,0.14,0,Wunderground v.1.15,2013-03-22 06:48:00,
2013-03-21 23:54:00,32.8,29.9,30.26,SSW,196,1.0,2.0,89,0.00,,,0.14,0,Wunderground v.1.15,2013-03-22 06:54:00,
2013-03-21 23:59:00,33.5,30.3,30.26,SSW,196,3.0,4.0,88,0.00,,,0.14,0,Wunderground v.1.15,2013-03-22 06:59:00,